createdAt,value
2022-08-22T00:01:52.567Z,93.97
2022-08-22T00:07:41.164Z,93.80
2022-08-22T00:13:07.581Z,93.71
2022-08-22T00:18:29.553Z,93.82
2022-08-22T00:23:41.374Z,93.64
2022-08-22T00:29:05.154Z,93.54
2022-08-22T00:34:22.769Z,93.29
2022-08-22T00:39:45.201Z,93.40
2022-08-22T00:45:11.600Z,93.43
2022-08-22T00:50:54.954Z,93.64
2022-08-22T00:56:32.126Z,93.58
2022-08-22T01:01:41.556Z,93.54
2022-08-22T01:07:22.210Z,93.51
2022-08-22T01:13:02.768Z,93.56
2022-08-22T01:19:06.263Z,93.56
2022-08-22T01:25:17.830Z,93.56
2022-08-22T01:31:24.075Z,93.67
2022-08-22T01:37:01.793Z,93.97
2022-08-22T01:43:09.664Z,94.21
2022-08-22T01:48:22.579Z,94.38
2022-08-22T01:53:44.519Z,94.36
2022-08-22T01:59:10.930Z,94.35
2022-08-22T02:04:34.004Z,94.28
2022-08-22T02:10:14.218Z,94.19
2022-08-22T02:15:38.504Z,94.13
2022-08-22T02:21:10.408Z,94.25
2022-08-22T02:27:07.124Z,94.18
2022-08-22T02:32:35.612Z,94.20
2022-08-22T02:38:13.480Z,94.11
2022-08-22T02:43:27.965Z,94.18
2022-08-22T02:48:50.631Z,94.27
2022-08-22T02:54:10.837Z,94.26
2022-08-22T02:59:32.559Z,94.25
2022-08-22T03:04:41.236Z,94.21
2022-08-22T03:10:26.208Z,94.26
2022-08-22T03:16:00.633Z,94.33
2022-08-22T03:21:35.454Z,94.43
2022-08-22T03:26:52.141Z,94.51
2022-08-22T03:32:22.792Z,94.54
2022-08-22T03:37:37.887Z,94.52
2022-08-22T03:43:17.754Z,94.52
2022-08-22T03:48:35.686Z,94.58
2022-08-22T03:53:46.546Z,94.54
2022-08-22T03:59:42.524Z,94.54
2022-08-22T04:04:51.877Z,94.57
2022-08-22T04:10:52.494Z,94.57
2022-08-22T04:16:04.088Z,94.53
2022-08-22T04:21:52.928Z,94.61
2022-08-22T04:27:07.643Z,94.51
2022-08-22T04:32:34.450Z,94.46
2022-08-22T04:37:53.661Z,94.49
2022-08-22T04:43:08.639Z,94.28
2022-08-22T04:48:34.958Z,94.19
2022-08-22T04:54:09.072Z,94.11
2022-08-22T04:59:17.333Z,94.08
2022-08-22T05:04:34.882Z,93.95
2022-08-22T05:09:45.673Z,93.96
2022-08-22T05:14:59.316Z,93.92
2022-08-22T05:20:15.038Z,93.87
2022-08-22T05:25:25.733Z,93.64
2022-08-22T05:30:31.890Z,93.62
2022-08-22T05:35:50.136Z,93.61
2022-08-22T05:41:05.916Z,93.58
2022-08-22T05:46:41.854Z,93.64
2022-08-22T05:52:00.193Z,93.50
2022-08-22T05:57:32.078Z,93.46
2022-08-22T06:03:06.182Z,93.50
2022-08-22T06:08:26.846Z,93.45
2022-08-22T06:13:37.285Z,93.39
2022-08-22T06:18:46.126Z,93.39
2022-08-22T06:24:02.978Z,93.34
2022-08-22T06:29:09.583Z,93.46
2022-08-22T06:34:29.660Z,93.44
2022-08-22T06:39:45.394Z,93.41
2022-08-22T06:45:29.511Z,93.29
2022-08-22T06:50:40.665Z,93.27
2022-08-22T06:55:53.240Z,93.14
2022-08-22T07:01:11.944Z,93.15
2022-08-22T07:06:31.862Z,93.20
2022-08-22T07:11:39.982Z,93.02
2022-08-22T07:16:55.222Z,92.95
2022-08-22T07:22:10.309Z,92.91
2022-08-22T07:27:19.948Z,92.05
2022-08-22T07:33:24.912Z,92.06
2022-08-22T07:38:43.959Z,91.75
2022-08-22T07:43:54.410Z,91.54
2022-08-22T07:49:31.889Z,91.08
2022-08-22T07:54:47.316Z,90.79
2022-08-22T07:59:57.407Z,90.80
2022-08-22T08:05:01.154Z,90.46
2022-08-22T08:10:16.394Z,90.56
2022-08-22T08:15:24.458Z,90.29
2022-08-22T08:20:30.318Z,89.86
2022-08-22T08:26:02.539Z,89.67
2022-08-22T08:31:18.220Z,89.31
2022-08-22T08:36:59.912Z,89.33
2022-08-22T08:42:11.468Z,89.47
2022-08-22T08:47:35.406Z,88.30
2022-08-22T08:53:32.750Z,87.83
2022-08-22T08:59:24.076Z,85.43
2022-08-22T09:05:12.832Z,82.94
2022-08-22T09:11:00.439Z,83.19
2022-08-22T09:17:00.685Z,81.95
2022-08-22T09:22:50.306Z,81.99
2022-08-22T09:28:48.982Z,80.91
2022-08-22T09:34:28.874Z,79.95
2022-08-22T09:40:01.594Z,82.25
2022-08-22T09:45:07.282Z,82.15
2022-08-22T09:50:20.123Z,82.73
2022-08-22T09:55:45.325Z,82.83
2022-08-22T10:01:19.172Z,82.72
2022-08-22T10:06:31.154Z,82.69
2022-08-22T10:11:55.323Z,82.73
2022-08-22T10:17:24.137Z,82.29
2022-08-22T10:22:49.491Z,81.61
2022-08-22T10:28:02.534Z,81.18
2022-08-22T10:33:57.766Z,80.79
2022-08-22T10:39:10.893Z,79.71
2022-08-22T10:44:36.323Z,79.48
2022-08-22T10:50:10.767Z,79.22
2022-08-22T10:55:24.595Z,76.99
2022-08-22T11:00:50.528Z,76.88
2022-08-22T11:06:03.714Z,77.37
2022-08-22T11:11:24.659Z,76.61
2022-08-22T11:17:27.536Z,72.56
2022-08-22T11:22:34.598Z,72.79
2022-08-22T11:28:12.950Z,73.01
2022-08-22T11:33:53.220Z,73.33
2022-08-22T11:39:30.133Z,72.68
2022-08-22T11:44:50.073Z,71.15
2022-08-22T11:50:18.529Z,71.47
2022-08-22T11:55:37.422Z,72.07
2022-08-22T12:01:17.150Z,71.88
2022-08-22T12:07:03.160Z,70.77
2022-08-22T12:12:09.108Z,69.79
2022-08-22T12:17:55.485Z,68.87
2022-08-22T12:23:40.783Z,68.20
2022-08-22T12:29:19.152Z,66.07
2022-08-22T12:34:47.452Z,65.32
2022-08-22T12:40:20.184Z,66.64
2022-08-22T12:46:13.197Z,67.15
2022-08-22T12:51:50.602Z,66.61
2022-08-22T12:57:24.475Z,65.65
2022-08-22T13:02:33.997Z,65.56
2022-08-22T13:07:41.494Z,66.64
2022-08-22T13:12:56.020Z,66.11
2022-08-22T13:18:28.388Z,64.53
2022-08-22T13:23:43.776Z,63.33
2022-08-22T13:29:24.493Z,63.92
2022-08-22T13:34:43.621Z,63.54
2022-08-22T13:39:51.102Z,63.62
2022-08-22T13:44:59.911Z,64.93
2022-08-22T13:50:22.311Z,64.28
2022-08-22T13:55:48.959Z,63.40
2022-08-22T14:01:25.513Z,63.51
2022-08-22T14:06:46.686Z,64.49
2022-08-22T14:11:59.282Z,64.60
2022-08-22T14:17:03.405Z,65.24
2022-08-22T14:22:17.220Z,65.55
2022-08-22T14:27:50.069Z,66.34
2022-08-22T14:33:16.976Z,67.08
2022-08-22T14:38:37.876Z,67.75
2022-08-22T14:44:07.471Z,68.23
2022-08-22T14:49:19.403Z,68.79
2022-08-22T14:54:28.926Z,69.12
2022-08-22T14:59:47.059Z,69.57
2022-08-22T15:04:56.259Z,69.56
2022-08-22T15:10:21.582Z,70.26
2022-08-22T15:15:41.113Z,70.47
2022-08-22T15:21:24.125Z,70.48
2022-08-22T15:26:41.110Z,69.96
2022-08-22T15:31:46.774Z,69.58
2022-08-22T15:37:11.968Z,69.80
2022-08-22T15:42:27.019Z,69.53
2022-08-22T15:47:41.667Z,69.63
2022-08-22T15:53:24.093Z,69.67
2022-08-22T15:58:27.564Z,68.86
2022-08-22T16:03:36.502Z,68.43
2022-08-22T16:08:52.074Z,68.74
2022-08-22T16:14:43.265Z,69.35
2022-08-22T16:19:46.255Z,69.67
2022-08-22T16:25:00.162Z,70.42
2022-08-22T16:30:12.170Z,70.68
2022-08-22T16:36:32.453Z,71.07
2022-08-22T16:41:42.305Z,71.43
2022-08-22T16:46:48.646Z,71.80
2022-08-22T16:52:25.631Z,72.36
2022-08-22T16:58:10.081Z,72.84
2022-08-22T17:03:37.836Z,72.90
2022-08-22T17:08:46.632Z,73.16
2022-08-22T17:14:52.202Z,72.93
2022-08-22T17:20:26.279Z,73.23
2022-08-22T17:25:48.171Z,73.22
2022-08-22T17:31:20.489Z,73.61
2022-08-22T17:36:50.915Z,74.00
2022-08-22T17:42:56.596Z,74.40
2022-08-22T17:48:25.011Z,75.14
2022-08-22T17:53:46.747Z,75.77
2022-08-22T17:59:10.911Z,76.25
2022-08-22T18:04:29.548Z,76.65
2022-08-22T18:09:54.198Z,76.79
2022-08-22T18:15:08.887Z,76.97
2022-08-22T18:20:52.560Z,77.09
2022-08-22T18:26:27.077Z,77.15
2022-08-22T18:31:54.315Z,77.40
2022-08-22T18:37:18.062Z,77.46
2022-08-22T18:42:28.581Z,77.78
2022-08-22T18:47:35.044Z,78.57
2022-08-22T18:52:39.660Z,78.78
2022-08-22T18:58:12.994Z,78.95
2022-08-22T19:03:28.271Z,79.16
2022-08-22T19:09:08.685Z,79.08
2022-08-22T19:14:40.968Z,79.62
2022-08-22T19:20:14.682Z,79.83
2022-08-22T19:25:27.333Z,80.21
2022-08-22T19:31:14.945Z,80.11
2022-08-22T19:36:33.122Z,80.21
2022-08-22T19:41:58.153Z,81.40
2022-08-22T19:47:19.023Z,81.87
2022-08-22T19:52:58.583Z,82.31
2022-08-22T19:58:50.626Z,82.39
2022-08-22T20:04:05.499Z,82.25
2022-08-22T20:09:31.853Z,82.32
2022-08-22T20:14:40.151Z,82.29
2022-08-22T20:25:42.611Z,82.79
2022-08-22T20:30:47.952Z,82.83
2022-08-22T20:35:59.622Z,82.52
2022-08-22T20:41:22.956Z,82.67
2022-08-22T20:46:46.345Z,82.39
2022-08-22T20:52:05.724Z,82.56
2022-08-22T20:57:17.801Z,83.03
2022-08-22T21:02:45.105Z,83.25
2022-08-22T21:08:10.461Z,83.79
2022-08-22T21:13:21.324Z,83.47
2022-08-22T21:18:52.960Z,83.06
2022-08-22T21:24:07.825Z,83.06
2022-08-22T21:29:10.662Z,83.07
2022-08-22T21:34:30.308Z,83.18
2022-08-22T21:39:44.019Z,83.26
2022-08-22T21:45:00.879Z,83.82
2022-08-22T21:50:20.909Z,84.36
2022-08-22T21:55:28.053Z,84.77
2022-08-22T22:00:40.159Z,84.72
2022-08-22T22:05:59.366Z,84.20
2022-08-22T22:11:08.545Z,83.88
2022-08-22T22:16:12.856Z,83.88
2022-08-22T22:21:16.995Z,84.04
2022-08-22T22:26:21.464Z,84.51
2022-08-22T22:31:24.469Z,84.82
2022-08-22T22:36:27.938Z,84.29
2022-08-22T22:41:30.915Z,84.44
2022-08-22T22:46:33.951Z,84.88
2022-08-22T22:51:36.981Z,85.28
2022-08-22T22:56:39.983Z,85.38
2022-08-22T23:02:14.353Z,86.68
2022-08-22T23:07:18.564Z,86.98
2022-08-22T23:12:24.323Z,86.93
2022-08-22T23:17:28.552Z,87.03
2022-08-22T23:22:31.960Z,87.15
2022-08-22T23:27:35.621Z,87.71
2022-08-22T23:32:39.316Z,87.77
2022-08-22T23:37:42.403Z,87.73
2022-08-22T23:42:45.374Z,86.75
2022-08-22T23:47:49.188Z,86.53
2022-08-22T23:52:52.273Z,86.43
2022-08-22T23:57:55.380Z,86.29
